Aérodrome :
LOGIN :

S'inscrire | Disclaimer

   EN    FR    IT 

 










Légende :    VFR   VFR Marginal   IFR   IFR Intensif   IFR Très Intensif
Visi : 
Plafond : 
>= 8 km
>= 3000ft
5 à 8 km
1000 à 3000 ft
1500m à 5 km
500 à 1000 ft
800 à 1500m
200 à 500 ft
< 800m
< 200 ft
Symboles :   Orages  Brouillard  Fortes neiges  Fortes précipitations  Vent > 20 kt
SIGMETs :   Divers  Orages  Givrage  Turbulence  Onde Orograph.  Cendres Volcan.






- Altitude de l'aérodrome : 72 ft
- Code IATA : UDE


EHVK - Volkel Airbase

DERNIER METAR :
  • 280755Z AUTO VRB02KT 3100 BR FEW007 BKN008 OVC009 01/00 Q0997 YLO

METARs EXPIRÉS :
  • 280739Z AUTO VRB01KT 2900 BR FEW000 BKN008 BKN009 M00/M00 Q0997 YLO
  • 280727Z AUTO VRB01KT 1100 BR FEW010 BKN220 00/00 Q0997 AMB
  • 280725Z AUTO VRB01KT 1900 BR BKN220 00/M00 Q0997 YLO
  • 280655Z AUTO 00000KT 2000 BR FEW033 01/01 Q0996 YLO
  • 280646Z AUTO 04001KT 4200 BR BKN032 02/02 Q0996 GRN
  • 280637Z AUTO 04002KT 3300 BR OVC032 03/02 Q0996 YLO
  • 280625Z AUTO 07002KT 3300 BR OVC030 03/02 Q0996 YLO
  • 280610Z AUTO 08003KT 5000 BR FEW004 OVC030 03/02 Q0996 WHT
  • 280603Z AUTO 09003KT 4500 BR SCT002 SCT003 OVC029 03/03 Q0996 AMB
  • 280555Z AUTO VRB01KT 4800 BR OVC029 03/02 Q0996 GRN
  • 280539Z AUTO VRB02KT 4600 BR BKN025 OVC029 03/03 Q0995 GRN
  • 280525Z AUTO VRB02KT 4600 BR OVC026 03/03 Q0995 GRN

TAF AMD TAF EHVK
Valide du 28 à 06h jusqu'au 28 à 18h UTC


280633Z 2806/2818 33004KT 3500 BR OVC025
BECMG 2806/2808 2000 BR MIFG BKN030
PROB40 2807/2810 0800 FG SCT001
BECMG 2811/2813 30006KT 7000 NSW
TEMPO 2812/2816 4000 SHRA SCT012 SCT015CB BKN025
PROB40
TEMPO 2812/2816 2500 SHRA RA SCT007 BKN012 SCT015CB



MET'MAP, la Météo Aéronautique d'un coup d'oeil ! - Copyright ORBIFLY Décembre 2007 - Disclaimer

ORBIFLY MET'MAP TEAM :

Programmation & Développement : Alexandra Zaïnal
Sur une idée originale de : Baudouin d'Aumeries
Assistance à la programmation : Marc-Olivier Méhu
Soutien technique & logistique : Manuel Goepfert

Contact : metmap@orbifly.com




SOURCES & CREDITS :

   NOAA